Time;durP1;ratioP1;P1;durP2;ratioP2;P2;SDS_P1;SDS_P2;PMS_P1;PMS_P2;Temp;Humidity;BMP_temperature;BMP_pressure;BME280_temperature;BME280_humidity;BME280_pressure;Samples;Min_cycle;Max_cycle;Signal;HPM_P1;HPM_P2
2021/10/17 08:13:25;;;;;;;5.70;1.72;;;;;;;7.94;86.45;99660.27;1841474;76;22146;-78
2021/10/17 08:15:51;;;;;;;;;;;;;;;7.90;86.41;99662.57;1817619;77;20994;-77
2021/10/17 08:18:20;;;;;;;9.03;2.37;;;;;;;7.88;86.34;99669.14;1814265;77;21138;-77
2021/10/17 08:20:46;;;;;;;4.87;1.77;;;;;;;7.90;86.43;99663.87;1813287;77;20999;-77
2021/10/17 08:23:13;;;;;;;4.10;2.25;;;;;;;7.90;86.36;99665.17;1809290;77;21507;-76
2021/10/17 08:25:41;;;;;;;3.42;1.65;;;;;;;7.91;86.29;99661.23;1814928;77;20970;-76
2021/10/17 08:28:14;;;;;;;4.40;1.90;;;;;;;7.88;86.04;99655.30;1761621;79;21614;-75
2021/10/17 08:30:44;;;;;;;3.52;1.87;;;;;;;7.82;86.09;99654.62;1752305;79;21522;-76
2021/10/17 08:33:10;;;;;;;7.03;1.98;;;;;;;7.76;86.11;99654.85;1751229;81;21710;-76
2021/10/17 08:35:37;;;;;;;5.58;2.42;;;;;;;7.76;86.08;99662.66;1750224;79;21575;-76
2021/10/17 08:38:04;;;;;;;8.35;3.75;;;;;;;7.81;86.20;99662.03;1750674;79;21011;-76
2021/10/17 08:40:31;;;;;;;5.75;2.50;;;;;;;7.95;86.49;99668.45;1752792;79;21661;-76
2021/10/17 08:42:59;;;;;;;8.60;2.07;;;;;;;8.12;86.48;99664.75;1753092;79;21118;-76
2021/10/17 08:45:26;;;;;;;6.60;2.20;;;;;;;8.23;86.25;99665.22;1726592;81;21172;-77
2021/10/17 08:47:53;;;;;;;;;;;;;;;8.39;86.49;99668.55;1758698;80;21022;-76
2021/10/17 08:50:20;;;;;;;4.42;2.33;;;;;;;8.58;86.28;99669.98;1753021;79;21731;-77
2021/10/17 08:52:47;;;;;;;4.83;2.47;;;;;;;8.76;86.33;99670.98;1756159;79;21034;-77
2021/10/17 08:55:15;;;;;;;4.80;2.10;;;;;;;8.92;86.24;99672.05;1754160;79;21142;-78
2021/10/17 08:57:42;;;;;;;5.60;2.02;;;;;;;9.11;86.04;99671.68;1707264;79;22083;-78
2021/10/17 09:00:32;;;;;;;4.20;2.00;;;;;;;9.29;86.13;99678.32;1749822;79;21080;-80
2021/10/17 09:03:00;;;;;;;5.58;2.45;;;;;;;9.49;86.07;99678.77;1755734;79;21632;-79
2021/10/17 09:05:40;;;;;;;5.65;2.33;;;;;;;9.74;85.86;99674.63;1754262;79;21054;-77
2021/10/17 09:08:08;;;;;;;4.78;2.05;;;;;;;9.95;85.77;99665.00;1747802;79;21122;-79
2021/10/17 09:10:37;;;;;;;3.87;1.82;;;;;;;10.05;85.72;99663.22;1753966;79;21021;-78
2021/10/17 09:13:11;;;;;;;4.12;1.92;;;;;;;10.01;84.80;99664.25;1752825;79;21087;-77
2021/10/17 09:15:39;;;;;;;5.60;2.37;;;;;;;9.86;84.82;99656.68;1750205;79;21172;-77
2021/10/17 09:18:20;;;;;;;6.45;2.35;;;;;;;9.77;84.91;99661.45;1754521;79;21053;-77
2021/10/17 09:20:57;;;;;;;6.87;2.87;;;;;;;9.75;85.11;99659.39;1751988;79;22049;-76
2021/10/17 09:23:37;;;;;;;4.42;1.82;;;;;;;9.73;85.09;99661.21;1755822;79;21061;-76
2021/10/17 09:26:12;;;;;;;8.40;1.82;;;;;;;9.74;84.96;99669.41;1755439;79;21512;-77
2021/10/17 09:28:40;;;;;;;7.08;1.87;;;;;;;9.71;84.87;99669.55;1714684;81;20956;-77
2021/10/17 09:31:14;;;;;;;;;;;;;;;9.72;84.96;99666.02;1752362;80;20983;-76
2021/10/17 09:33:46;;;;;;;4.35;1.82;;;;;;;9.62;84.30;99679.47;1754275;79;20487;-76
2021/10/17 09:36:25;;;;;;;8.85;2.52;;;;;;;9.53;84.72;99674.66;1751336;79;22063;-77
2021/10/17 09:39:09;;;;;;;4.55;1.87;;;;;;;9.58;84.80;99680.53;1751167;79;21076;-76
2021/10/17 09:41:39;;;;;;;5.00;1.87;;;;;;;9.67;84.89;99677.13;1747124;79;21064;-78
2021/10/17 09:44:04;;;;;;;5.28;2.42;;;;;;;9.74;84.60;99666.80;1748037;79;22021;-77
2021/10/17 09:46:32;;;;;;;7.45;2.35;;;;;;;9.76;84.44;99662.38;1754391;80;21088;-89
2021/10/17 09:48:59;;;;;;;6.33;2.77;;;;;;;9.81;84.55;99663.02;1752127;79;21005;-91
2021/10/17 09:51:29;;;;;;;8.20;2.17;;;;;;;9.91;84.58;99672.09;1751446;79;20960;-87
2021/10/17 09:53:58;;;;;;;7.65;2.80;;;;;;;10.03;84.60;99665.04;1751958;79;21528;-86
2021/10/17 09:56:40;;;;;;;8.30;2.90;;;;;;;10.15;84.37;99673.22;1752539;81;21602;-81
2021/10/17 09:59:11;;;;;;;5.45;2.42;;;;;;;10.20;84.33;99664.72;1751790;79;21221;-85
2021/10/17 10:01:39;;;;;;;3.98;2.05;;;;;;;10.32;84.27;99669.39;1758582;80;21061;-82
2021/10/17 10:04:11;;;;;;;6.17;2.08;;;;;;;10.39;84.24;99672.11;1752331;79;21147;-82
2021/10/17 10:06:38;;;;;;;4.45;2.02;;;;;;;10.50;84.09;99673.75;1754575;79;21614;-81
2021/10/17 10:09:09;;;;;;;5.30;2.40;;;;;;;10.53;83.91;99672.30;1750530;80;21056;-84
2021/10/17 10:11:38;;;;;;;6.17;2.12;;;;;;;10.67;83.94;99674.68;1757268;79;21739;-82
2021/10/17 10:14:07;;;;;;;5.70;1.75;;;;;;;10.72;83.73;99671.39;1755141;79;22133;-89
2021/10/17 10:16:39;;;;;;;5.15;2.20;;;;;;;10.75;83.50;99682.98;1756359;79;21519;-89
2021/10/17 10:19:13;;;;;;;4.42;1.92;;;;;;;10.70;83.32;99672.79;1751620;79;21956;-91
2021/10/17 10:21:42;;;;;;;5.28;2.40;;;;;;;10.70;83.34;99677.17;1755027;80;21159;-90
2021/10/17 10:24:12;;;;;;;7.08;2.05;;;;;;;10.68;83.01;99674.63;1753631;80;21038;-90
2021/10/17 10:26:42;;;;;;;9.63;3.20;;;;;;;10.62;83.04;99679.30;1751449;79;22344;-86
2021/10/17 10:29:09;;;;;;;6.85;2.83;;;;;;;10.60;83.11;99676.75;1757005;80;21524;-90
2021/10/17 10:31:56;;;;;;;5.47;2.20;;;;;;;10.62;83.08;99676.69;1731274;81;21030;-90
2021/10/17 10:34:34;;;;;;;5.35;1.90;;;;;;;10.63;83.09;99673.15;1755028;79;21607;-90
2021/10/17 10:37:16;;;;;;;3.70;2.17;;;;;;;10.63;82.92;99670.54;1757412;79;21129;-88
2021/10/17 10:40:08;;;;;;;9.23;3.12;;;;;;;10.53;82.56;99659.70;1757412;80;21072;-88
2021/10/17 10:42:44;;;;;;;7.30;2.30;;;;;;;10.46;82.62;99669.58;1755747;79;21002;-86
2021/10/17 10:45:35;;;;;;;6.08;2.25;;;;;;;10.45;82.61;99674.42;1754749;79;20923;-86
2021/10/17 10:48:17;;;;;;;8.23;3.22;;;;;;;10.48;82.64;99674.27;1755456;79;22124;-87
2021/10/17 10:50:49;;;;;;;7.97;2.80;;;;;;;10.49;82.47;99670.73;1758342;80;22507;-86
2021/10/17 10:53:49;;;;;;;7.87;2.47;;;;;;;10.41;82.23;99674.16;1750734;80;21499;-86
2021/10/17 10:56:46;;;;;;;7.35;2.80;;;;;;;10.35;82.11;99674.45;1776039;78;20989;-82
2021/10/17 10:59:16;;;;;;;7.75;2.70;;;;;;;10.34;82.11;99664.95;1772095;79;22140;-87
2021/10/17 11:02:17;;;;;;;6.50;2.50;;;;;;;10.33;82.10;99671.06;1775900;78;21013;-87
2021/10/17 11:04:45;;;;;;;6.47;2.02;;;;;;;10.34;82.04;99664.95;1780979;78;21527;-86
2021/10/17 11:07:39;;;;;;;4.42;2.05;;;;;;;10.34;81.86;99675.39;1780876;78;20976;-86
2021/10/17 11:10:37;;;;;;;8.58;2.33;;;;;;;10.39;82.02;99672.11;1752653;80;20990;-86
2021/10/17 11:13:07;;;;;;;7.47;3.00;;;;;;;10.55;82.11;99667.45;1782225;78;20989;-85
2021/10/17 11:15:40;;;;;;;7.92;3.72;;;;;;;10.72;81.97;99667.47;1763302;79;21016;-87
2021/10/17 11:18:11;;;;;;;8.43;3.15;;;;;;;10.89;82.08;99664.88;1766793;79;21878;-87
2021/10/17 11:20:48;;;;;;;3.98;2.40;;;;;;;11.07;81.90;99667.52;1731374;79;22266;-87
2021/10/17 11:23:32;;;;;;;7.60;2.35;;;;;;;11.24;81.71;99664.89;1758466;79;21571;-86
2021/10/17 11:26:11;;;;;;;6.87;2.70;;;;;;;11.31;81.50;99657.57;1759407;79;21550;-83
2021/10/17 11:28:42;;;;;;;7.05;2.40;;;;;;;11.41;81.03;99646.56;1752845;79;21728;-83
2021/10/17 11:31:14;;;;;;;5.70;2.00;;;;;;;11.46;81.22;99650.73;1754233;79;21075;-83
2021/10/17 11:33:44;;;;;;;4.12;1.95;;;;;;;11.60;81.35;99645.62;1748599;79;21573;-85
2021/10/17 11:36:14;;;;;;;3.77;1.98;;;;;;;11.74;81.11;99640.50;1757678;79;21036;-86
2021/10/17 11:38:42;;;;;;;6.78;2.37;;;;;;;11.85;80.15;99631.64;1747895;79;21022;-85
2021/10/17 11:41:11;;;;;;;;;;;;;;;11.94;80.46;99633.38;1759530;79;20980;-86
2021/10/17 11:43:47;;;;;;;4.58;1.90;;;;;;;11.97;80.51;99638.45;1753364;79;21244;-84
2021/10/17 11:46:18;;;;;;;9.38;2.20;;;;;;;12.06;80.58;99630.09;1760202;79;21562;-87
2021/10/17 11:48:46;;;;;;;6.28;2.02;;;;;;;12.18;80.51;99630.70;1755370;79;21064;-87
2021/10/17 11:51:16;;;;;;;6.33;1.85;;;;;;;12.34;80.52;99623.33;1749331;79;21052;-87
2021/10/17 11:53:43;;;;;;;9.68;2.60;;;;;;;12.40;80.40;99622.98;1756029;81;21014;-86
2021/10/17 11:56:11;;;;;;;7.45;2.37;;;;;;;12.49;79.77;99625.94;1761130;79;21071;-86
2021/10/17 11:58:40;;;;;;;7.42;3.22;;;;;;;12.56;79.71;99618.56;1768603;78;21033;-86
2021/10/17 12:01:14;;;;;;;5.70;2.75;;;;;;;12.51;79.35;99615.36;1750466;79;20997;-86
2021/10/17 12:03:45;;;;;;;4.92;1.92;;;;;;;12.45;79.30;99616.55;1744694;80;20953;-86
2021/10/17 12:06:18;;;;;;;8.30;2.37;;;;;;;12.46;79.52;99618.70;1760127;79;21532;-86
2021/10/17 12:09:03;;;;;;;7.47;2.00;;;;;;;12.58;79.50;99616.70;1770732;79;21320;-86
2021/10/17 12:11:29;;;;;;;4.00;1.77;;;;;;;12.63;79.34;99616.42;1762986;80;20981;-87
2021/10/17 12:13:59;;;;;;;7.10;2.52;;;;;;;12.49;78.63;99611.97;1764309;79;21045;-87
2021/10/17 12:16:29;;;;;;;4.25;2.02;;;;;;;12.36;78.74;99590.89;1758603;79;21684;-87
2021/10/17 12:19:05;;;;;;;8.18;2.17;;;;;;;12.43;78.66;99614.95;1774125;79;21104;-86
2021/10/17 12:21:36;;;;;;;5.70;2.47;;;;;;;12.43;78.69;99609.70;1756413;79;21920;-86
2021/10/17 12:24:04;;;;;;;7.70;2.25;;;;;;;12.36;78.23;99608.38;1769630;79;21036;-86
2021/10/17 12:26:34;;;;;;;6.35;2.35;;;;;;;12.30;78.10;99610.41;1755168;79;21087;-86
2021/10/17 12:29:16;;;;;;;7.87;2.72;;;;;;;12.29;78.26;99603.50;1768213;80;21010;-86
2021/10/17 12:31:47;;;;;;;5.35;2.05;;;;;;;12.23;77.59;99595.97;1761512;79;21060;-86
2021/10/17 12:34:14;;;;;;;7.75;2.62;;;;;;;12.06;77.44;99598.68;1764496;79;21074;-85
2021/10/17 12:36:42;;;;;;;;;;;;;;;12.06;77.44;99598.68;1781077;78;21044;-85
2021/10/17 12:39:10;;;;;;;;;;;;;;;12.00;77.39;99595.10;1750872;80;20173;-85
2021/10/17 12:41:37;;;;;;;4.97;1.90;;;;;;;11.93;77.35;99598.97;1755126;80;20102;-85
2021/10/17 12:44:07;;;;;;;5.28;1.95;;;;;;;11.86;77.27;99595.86;1747810;79;21020;-85
2021/10/17 12:46:35;;;;;;;5.30;2.00;;;;;;;11.86;77.44;99594.08;1749467;80;21165;-85
2021/10/17 12:49:15;;;;;;;6.33;1.82;;;;;;;11.88;77.18;99594.48;1723884;81;20994;-85
2021/10/17 12:51:52;;;;;;;6.97;1.60;;;;;;;11.79;77.00;99591.41;1739373;81;21495;-85
2021/10/17 12:54:30;;;;;;;4.12;1.77;;;;;;;11.74;76.79;99589.96;1745524;80;20885;-86
2021/10/17 12:57:03;;;;;;;;;;;;;;;11.65;76.24;99591.30;1757328;81;21610;-86
2021/10/17 12:59:33;;;;;;;6.58;2.17;;;;;;;11.46;76.15;99582.75;1750995;79;22353;-86
2021/10/17 13:02:13;;;;;;;6.03;1.65;;;;;;;11.36;76.41;99585.83;1741107;80;20942;-85
2021/10/17 13:04:51;;;;;;;7.28;2.20;;;;;;;11.31;76.32;99587.84;1730972;80;20940;-85
2021/10/17 13:07:33;;;;;;;5.03;1.90;;;;;;;11.30;76.53;99575.70;1745107;80;21048;-86
2021/10/17 13:10:19;;;;;;;10.53;1.80;;;;;;;11.32;76.44;99580.86;1743089;79;21041;-85
2021/10/17 13:12:54;;;;;;;5.22;1.80;;;;;;;11.30;76.38;99575.70;1755216;79;22572;-82
2021/10/17 13:15:32;;;;;;;7.92;1.95;;;;;;;11.29;76.16;99578.41;1751389;79;20997;-86
2021/10/17 13:18:06;;;;;;;7.50;3.08;;;;;;;11.23;75.73;99580.89;1753893;79;21295;-83
2021/10/17 13:20:38;;;;;;;5.70;1.87;;;;;;;11.16;75.83;99588.65;1749355;80;21283;-83
2021/10/17 13:23:08;;;;;;;5.83;1.82;;;;;;;11.12;75.76;99585.36;1755855;79;21748;-81
2021/10/17 13:25:41;;;;;;;6.97;1.62;;;;;;;11.06;75.54;99593.95;1754980;80;21322;-84
2021/10/17 13:28:09;;;;;;;5.10;1.72;;;;;;;11.04;75.71;99586.68;1753496;79;20998;-81
2021/10/17 13:30:35;;;;;;;7.10;2.15;;;;;;;11.01;75.49;99600.74;1755968;79;21081;-85
2021/10/17 13:33:02;;;;;;;6.40;2.00;;;;;;;10.98;75.57;99596.52;1755986;79;21030;-85
2021/10/17 13:35:32;;;;;;;4.72;1.70;;;;;;;11.00;75.51;99595.58;1760020;79;21340;-86
2021/10/17 13:38:00;;;;;;;7.10;2.42;;;;;;;10.95;75.33;99592.75;1746951;80;21682;-87
2021/10/17 13:40:27;;;;;;;4.40;1.72;;;;;;;10.90;75.38;99596.06;1750686;80;20993;-85
2021/10/17 13:42:57;;;;;;;6.60;2.05;;;;;;;10.86;75.28;99589.28;1752645;80;20899;-85
2021/10/17 13:45:26;;;;;;;3.58;1.57;;;;;;;10.84;75.15;99585.92;1747675;80;20995;-85
2021/10/17 13:47:55;;;;;;;5.30;2.33;;;;;;;10.77;75.05;99582.38;1753298;79;21037;-85
2021/10/17 13:50:22;;;;;;;6.45;1.72;;;;;;;10.74;75.04;99585.98;1748200;79;21594;-85
2021/10/17 13:52:49;;;;;;;4.85;1.77;;;;;;;10.70;74.97;99579.25;1751740;80;21508;-86
2021/10/17 13:55:17;;;;;;;11.97;7.50;;;;;;;10.63;74.99;99589.59;1751811;80;21021;-85
2021/10/17 13:57:45;;;;;;;5.87;2.60;;;;;;;10.59;75.00;99585.46;1755348;81;21025;-84
2021/10/17 14:00:23;;;;;;;3.90;1.98;;;;;;;10.56;75.02;99581.67;1749700;79;21330;-85
2021/10/17 14:02:45;;;;;;;7.78;2.00;;;;;;;10.55;74.91;99581.30;1750832;79;21297;-86
2021/10/17 14:05:12;;;;;;;6.35;2.50;;;;;;;10.48;74.91;99585.52;1752715;79;20990;-86
2021/10/17 14:07:39;;;;;;;5.10;1.57;;;;;;;10.42;74.79;99585.83;1753453;79;20954;-85
2021/10/17 14:10:07;;;;;;;3.77;1.50;;;;;;;10.36;74.88;99582.19;1749884;80;21579;-85
2021/10/17 14:12:38;;;;;;;5.22;1.65;;;;;;;10.33;74.80;99578.42;1748307;79;20985;-84
2021/10/17 14:15:07;;;;;;;7.22;1.90;;;;;;;10.25;74.72;99575.30;1752024;79;21477;-83
2021/10/17 14:17:34;;;;;;;6.33;1.90;;;;;;;10.15;74.69;99579.29;1754579;79;20999;-84
2021/10/17 14:20:01;;;;;;;3.80;1.70;;;;;;;10.09;74.65;99576.05;1754217;79;20985;-84
2021/10/17 14:22:28;;;;;;;5.60;1.80;;;;;;;10.03;74.79;99575.05;1751183;79;21585;-85
2021/10/17 14:24:54;;;;;;;6.10;2.00;;;;;;;10.02;74.77;99575.94;1750950;79;21034;-85
2021/10/17 14:27:23;;;;;;;4.97;2.03;;;;;;;9.99;74.57;99576.09;1755326;79;21492;-85
2021/10/17 14:29:50;;;;;;;6.53;1.92;;;;;;;9.92;74.67;99576.01;1752179;79;21239;-84
2021/10/17 14:32:17;;;;;;;4.78;2.05;;;;;;;9.89;74.74;99578.77;1754588;79;20934;-81
2021/10/17 14:34:43;;;;;;;4.10;1.85;;;;;;;9.88;74.76;99573.14;1752896;79;20942;-84
2021/10/17 14:37:10;;;;;;;5.83;1.82;;;;;;;9.85;74.64;99578.50;1749468;80;21046;-87
2021/10/17 14:39:37;;;;;;;5.33;1.53;;;;;;;9.80;74.64;99577.86;1748328;79;21485;-68
2021/10/17 14:42:04;;;;;;;7.63;2.13;;;;;;;9.76;74.61;99572.41;1749552;80;21039;-67
2021/10/17 14:44:31;;;;;;;5.15;1.70;;;;;;;9.74;74.67;99572.94;1751167;79;20954;-67
2021/10/17 14:46:58;;;;;;;6.10;2.43;;;;;;;9.70;74.60;99581.83;1749149;79;21628;-68
2021/10/17 14:49:25;;;;;;;;;;;;;;;9.67;74.65;99581.98;1757298;79;22000;-67
2021/10/17 14:51:52;;;;;;;4.60;2.22;;;;;;;9.64;74.68;99578.59;1753460;79;21125;-67
2021/10/17 14:54:18;;;;;;;7.15;2.10;;;;;;;9.61;74.64;99576.13;1755346;79;20950;-67
2021/10/17 14:56:45;;;;;;;5.65;2.20;;;;;;;9.59;74.65;99588.37;1752256;79;21046;-67
2021/10/17 14:59:12;;;;;;;8.58;2.55;;;;;;;9.56;74.67;99583.30;1752937;79;20950;-68
2021/10/17 15:01:39;;;;;;;5.03;1.80;;;;;;;9.52;74.59;99584.37;1754567;79;20983;-68
2021/10/17 15:04:06;;;;;;;5.12;2.25;;;;;;;9.46;74.62;99584.62;1755819;79;22276;-68
2021/10/17 15:06:58;;;;;;;5.60;2.50;;;;;;;9.44;74.63;99589.08;1757664;79;21646;-68
2021/10/17 15:09:23;;;;;;;9.23;2.10;;;;;;;9.40;74.67;99590.11;1754544;79;21009;-67
2021/10/17 15:11:50;;;;;;;4.53;2.05;;;;;;;9.37;74.70;99587.64;1754823;79;21451;-67
2021/10/17 15:14:16;;;;;;;5.62;1.98;;;;;;;9.34;74.68;99585.17;1755485;80;21108;-68
2021/10/17 15:16:43;;;;;;;5.13;1.70;;;;;;;9.32;74.68;99590.91;1760289;79;21456;-69
2021/10/17 15:19:10;;;;;;;6.00;2.55;;;;;;;9.30;74.71;99581.00;1756502;79;21031;-68
2021/10/17 15:21:37;;;;;;;4.97;2.43;;;;;;;9.27;74.68;99588.95;1757213;79;22085;-67
2021/10/17 15:24:05;;;;;;;4.95;2.77;;;;;;;9.23;74.69;99588.25;1759387;79;21001;-68
2021/10/17 15:26:32;;;;;;;4.47;1.92;;;;;;;9.17;74.70;99591.97;1757612;79;21020;-68
2021/10/17 15:28:59;;;;;;;5.42;2.95;;;;;;;9.15;74.67;99595.55;1760785;79;21475;-67
2021/10/17 15:31:25;;;;;;;7.47;2.87;;;;;;;9.12;74.70;99601.73;1759410;79;21028;-67
2021/10/17 15:33:52;;;;;;;8.30;2.17;;;;;;;9.10;74.77;99602.28;1758867;81;21485;-67
2021/10/17 15:36:19;;;;;;;3.20;2.03;;;;;;;9.09;74.78;99609.69;1755688;79;21057;-68
2021/10/17 15:38:45;;;;;;;5.83;2.63;;;;;;;9.06;74.72;99609.81;1755199;79;20980;-68
2021/10/17 15:41:12;;;;;;;4.95;2.58;;;;;;;9.02;74.75;99605.66;1755439;79;21834;-69
2021/10/17 15:43:44;;;;;;;6.60;3.50;;;;;;;9.01;74.80;99610.46;1759524;79;21048;-68
2021/10/17 15:46:10;;;;;;;6.05;2.30;;;;;;;8.99;74.79;99613.61;1758824;79;20973;-69
2021/10/17 15:48:37;;;;;;;4.10;2.20;;;;;;;8.96;74.82;99608.08;1758916;79;21219;-68
2021/10/17 15:51:07;;;;;;;5.85;2.27;;;;;;;8.96;74.85;99615.02;1759631;79;21037;-68
2021/10/17 15:53:35;;;;;;;4.85;2.22;;;;;;;8.96;74.87;99613.71;1757994;79;22293;-68
2021/10/17 15:56:05;;;;;;;6.03;2.62;;;;;;;8.94;74.84;99612.95;1756512;79;21024;-64
2021/10/17 15:58:32;;;;;;;5.00;2.22;;;;;;;8.93;74.88;99610.81;1756273;79;21505;-64
2021/10/17 16:01:00;;;;;;;4.42;2.22;;;;;;;8.94;74.86;99611.66;1754992;79;21044;-63
2021/10/17 16:03:35;;;;;;;3.37;1.72;;;;;;;8.94;74.86;99616.86;1755864;79;20984;-64
2021/10/17 16:06:02;;;;;;;5.12;2.30;;;;;;;8.91;74.87;99610.48;1759218;79;21060;-64
2021/10/17 16:09:21;;;;;;;4.78;1.90;;;;;;;8.93;74.90;99616.45;1809074;75;22833;-64
2021/10/17 16:11:48;;;;;;;7.08;2.75;;;;;;;8.88;74.90;99614.52;1826572;77;21041;-62
2021/10/17 16:14:14;;;;;;;3.72;2.15;;;;;;;8.88;74.98;99623.63;1832991;77;21524;-62
2021/10/17 16:16:41;;;;;;;6.13;2.07;;;;;;;8.87;74.99;99624.52;1825393;77;21056;-62
2021/10/17 16:19:08;;;;;;;4.28;2.50;;;;;;;8.86;75.00;99619.78;1829902;77;20953;-64
2021/10/17 16:21:35;;;;;;;5.83;2.47;;;;;;;8.83;75.01;99623.81;1824304;77;20987;-64
2021/10/17 16:24:03;;;;;;;7.08;2.70;;;;;;;8.81;75.05;99627.39;1795228;77;21040;-63
2021/10/17 16:26:29;;;;;;;;;;;;;;;8.82;75.10;99629.07;1835601;77;21518;-63
2021/10/17 16:31:02;;;;;;;6.72;2.02;;;;;;;8.84;75.13;99635.07;1861046;75;22703;-64
2021/10/17 16:33:23;;;;;;;5.97;2.42;;;;;;;8.78;75.12;99631.42;1833250;77;20975;-64
2021/10/17 16:35:50;;;;;;;7.28;2.62;;;;;;;8.76;75.13;99634.54;1832753;77;21101;-63
2021/10/17 16:38:20;;;;;;;4.58;2.30;;;;;;;8.72;75.17;99628.16;1836883;77;21009;-63
2021/10/17 16:40:49;;;;;;;5.92;2.55;;;;;;;8.70;75.14;99633.88;1832806;76;21079;-63
2021/10/17 16:43:17;;;;;;;4.97;2.05;;;;;;;8.66;75.18;99632.32;1835656;77;21558;-63
2021/10/17 16:45:44;;;;;;;6.40;2.67;;;;;;;8.63;75.23;99642.02;1836307;77;21560;-63
2021/10/17 16:48:12;;;;;;;3.90;2.37;;;;;;;8.53;75.21;99634.17;1785402;79;22220;-64
2021/10/17 16:50:40;;;;;;;7.22;2.27;;;;;;;8.53;75.21;99634.17;1797059;78;21017;-63
2021/10/17 16:53:08;;;;;;;4.55;2.20;;;;;;;8.48;75.37;99636.49;1797261;78;20990;-64
2021/10/17 16:55:37;;;;;;;5.08;2.37;;;;;;;8.46;75.46;99634.89;1794509;78;21503;-63
2021/10/17 16:58:04;;;;;;;7.03;2.37;;;;;;;8.41;75.50;99626.41;1795575;78;20973;-64
2021/10/17 17:00:32;;;;;;;5.62;2.80;;;;;;;8.38;75.60;99626.51;1799132;78;21907;-64
2021/10/17 17:03:00;;;;;;;12.50;3.50;;;;;;;8.37;75.67;99631.30;1780231;79;20989;-64
2021/10/17 17:05:28;;;;;;;5.20;2.58;;;;;;;8.36;75.70;99636.12;1771416;80;20979;-63
2021/10/17 17:07:55;;;;;;;;;;;;;;;8.35;75.77;99637.04;1782557;78;21015;-63
2021/10/17 17:10:21;;;;;;;9.33;3.40;;;;;;;8.36;75.92;99636.12;1776054;78;20430;-64
2021/10/17 17:12:49;;;;;;;10.30;5.92;;;;;;;8.36;75.94;99636.12;1777054;78;20985;-63
2021/10/17 17:15:17;;;;;;;8.00;3.45;;;;;;;8.35;75.98;99638.34;1767281;78;20902;-63
2021/10/17 17:17:44;;;;;;;4.28;2.92;;;;;;;8.35;76.04;99639.64;1795849;78;20993;-64
2021/10/17 17:20:14;;;;;;;6.67;3.12;;;;;;;8.36;76.14;99641.33;1795677;78;20957;-63
2021/10/17 17:22:41;;;;;;;10.05;2.95;;;;;;;8.37;76.16;99641.24;1792484;79;20904;-63
2021/10/17 17:25:13;;;;;;;5.30;2.47;;;;;;;8.38;76.19;99642.12;1777705;79;21731;-63
2021/10/17 17:27:45;;;;;;;5.95;2.80;;;;;;;8.39;76.26;99638.62;1775286;79;21332;-64
2021/10/17 17:30:13;;;;;;;6.72;3.17;;;;;;;8.39;76.33;99642.53;1765735;80;20949;-63
2021/10/17 17:32:41;;;;;;;5.67;2.67;;;;;;;8.36;76.34;99644.77;1765414;79;21506;-63
2021/10/17 17:35:09;;;;;;;4.78;2.70;;;;;;;8.35;76.43;99652.65;1761870;80;20982;-63
2021/10/17 17:37:36;;;;;;;5.80;3.00;;;;;;;8.30;76.49;99640.65;1753812;80;21103;-63
2021/10/17 17:40:05;;;;;;;7.33;3.43;;;;;;;8.27;76.57;99651.17;1769605;79;20976;-63
2021/10/17 17:42:31;;;;;;;6.12;2.85;;;;;;;8.25;76.67;99651.68;1768201;79;21539;-63
2021/10/17 17:44:58;;;;;;;9.83;3.35;;;;;;;8.23;76.79;99652.22;1768739;79;21012;-63
2021/10/17 17:47:25;;;;;;;8.87;4.03;;;;;;;8.19;76.84;99654.53;1766586;79;21093;-63
2021/10/17 17:49:54;;;;;;;11.10;4.70;;;;;;;8.17;76.88;99659.39;1770796;79;22289;-63
2021/10/17 17:52:20;;;;;;;6.30;3.30;;;;;;;8.14;76.97;99660.35;1768844;79;21073;-63
2021/10/17 17:54:47;;;;;;;9.47;4.80;;;;;;;8.09;77.10;99663.58;1768887;79;21562;-64
2021/10/17 17:57:14;;;;;;;8.80;3.70;;;;;;;8.05;77.12;99661.55;1768625;79;20970;-64
2021/10/17 17:59:41;;;;;;;7.50;3.25;;;;;;;8.02;77.24;99662.12;1767871;79;20882;-63
2021/10/17 18:02:08;;;;;;;8.80;3.77;;;;;;;8.00;77.34;99667.83;1767017;78;21394;-63
2021/10/17 18:04:34;;;;;;;7.40;4.30;;;;;;;7.97;77.42;99667.95;1767027;79;21111;-63
2021/10/17 18:07:01;;;;;;;11.17;3.30;;;;;;;7.94;77.46;99666.77;1764458;79;21735;-63
2021/10/17 18:09:28;;;;;;;10.53;3.98;;;;;;;7.91;77.56;99664.28;1768609;79;20942;-63
2021/10/17 18:11:55;;;;;;;6.87;3.53;;;;;;;7.89;77.68;99675.19;1768536;79;21069;-63
2021/10/17 18:14:22;;;;;;;8.90;3.60;;;;;;;7.86;77.65;99676.14;1768943;79;21112;-63
2021/10/17 18:16:52;;;;;;;7.53;3.52;;;;;;;7.85;77.87;99673.16;1768563;79;21104;-63
2021/10/17 18:19:18;;;;;;;5.83;3.08;;;;;;;7.82;77.90;99667.62;1764632;79;20947;-63
2021/10/17 18:21:47;;;;;;;12.33;3.50;;;;;;;7.80;78.00;99675.08;1763727;79;20997;-64
2021/10/17 18:24:14;;;;;;;8.15;4.10;;;;;;;7.77;78.04;99674.73;1767122;79;21029;-64
2021/10/17 18:26:41;;;;;;;10.03;4.92;;;;;;;7.76;78.14;99683.45;1762555;79;21410;-63
2021/10/17 18:29:08;;;;;;;6.33;3.27;;;;;;;7.74;78.17;99676.14;1761830;79;21072;-63
2021/10/17 18:31:35;;;;;;;6.12;3.08;;;;;;;7.73;78.21;99680.08;1779430;79;21492;-63
2021/10/17 18:34:02;;;;;;;9.18;3.80;;;;;;;7.72;78.30;99684.44;1772505;79;20975;-63
2021/10/17 18:36:29;;;;;;;9.97;3.70;;;;;;;7.70;78.40;99680.20;1775690;79;21025;-64
2021/10/17 18:38:56;;;;;;;6.15;3.40;;;;;;;7.70;78.51;99682.38;1775749;79;21113;-63
2021/10/17 18:41:23;;;;;;;12.05;3.52;;;;;;;7.70;78.51;99683.67;1773813;79;22032;-63
2021/10/17 18:43:51;;;;;;;6.67;3.37;;;;;;;7.70;78.61;99681.08;1776702;79;20952;-63
2021/10/17 18:46:18;;;;;;;13.08;4.35;;;;;;;7.71;78.70;99680.16;1779464;79;21559;-64
2021/10/17 18:48:46;;;;;;;5.93;3.20;;;;;;;7.72;78.82;99689.64;1775607;79;20999;-64
2021/10/17 18:51:13;;;;;;;8.20;3.72;;;;;;;7.72;78.90;99685.73;1778596;79;22266;-63
2021/10/17 18:53:40;;;;;;;5.83;2.70;;;;;;;7.74;78.99;99690.44;1775769;79;20998;-63
2021/10/17 18:56:06;;;;;;;8.67;3.50;;;;;;;7.73;79.00;99687.87;1796333;78;21046;-64
2021/10/17 18:58:33;;;;;;;5.83;2.90;;;;;;;7.72;79.19;99685.73;1796648;78;21396;-63
2021/10/17 19:00:59;;;;;;;10.55;3.70;;;;;;;7.73;79.22;99688.75;1799413;78;20982;-63
2021/10/17 19:03:26;;;;;;;4.17;2.65;;;;;;;7.72;79.35;99687.04;1761423;80;22330;-63
2021/10/17 19:05:53;;;;;;;7.55;3.20;;;;;;;7.74;79.31;99683.94;1766082;79;21034;-63
2021/10/17 19:08:20;;;;;;;6.08;2.87;;;;;;;7.72;79.37;99678.41;1781995;79;21547;-64
2021/10/17 19:10:46;;;;;;;6.07;2.90;;;;;;;7.72;79.47;99687.04;1792238;79;21076;-63
2021/10/17 19:13:13;;;;;;;5.87;2.50;;;;;;;7.68;79.50;99684.17;1770426;78;21164;-63
2021/10/17 19:15:40;;;;;;;6.62;3.37;;;;;;;7.64;79.51;99691.66;1766382;79;21114;-64
2021/10/17 19:18:10;;;;;;;10.78;3.70;;;;;;;7.59;79.63;99689.70;1770254;79;21095;-63
2021/10/17 19:20:37;;;;;;;4.58;2.65;;;;;;;7.55;79.71;99690.24;1795622;79;21022;-64
2021/10/17 19:23:05;;;;;;;5.60;3.15;;;;;;;7.50;79.71;99690.00;1790426;79;20998;-64
2021/10/17 19:25:32;;;;;;;;;;;;;;;7.48;79.87;99693.10;1798380;79;20975;-63
2021/10/17 19:27:59;;;;;;;13.58;3.50;;;;;;;7.46;79.98;99698.83;1760569;79;21848;-64
2021/10/17 19:30:27;;;;;;;6.28;2.98;;;;;;;7.42;80.01;99690.72;1793499;78;21589;-62
2021/10/17 19:32:55;;;;;;;9.58;3.60;;;;;;;7.38;80.06;99694.73;1788426;78;21582;-63
2021/10/17 19:35:23;;;;;;;9.45;4.12;;;;;;;7.37;80.17;99702.59;1782227;79;22233;-63
2021/10/17 19:37:56;;;;;;;6.70;3.22;;;;;;;7.36;80.30;99705.61;1791049;78;20917;-62
2021/10/17 19:40:27;;;;;;;4.95;3.20;;;;;;;7.36;80.36;99704.77;1785823;79;21059;-63
2021/10/17 19:42:55;;;;;;;6.45;3.45;;;;;;;7.37;80.48;99709.93;1807565;78;20981;-63
2021/10/17 19:45:24;;;;;;;7.90;3.83;;;;;;;7.37;80.53;99712.52;1795554;78;21006;-63
2021/10/17 19:47:53;;;;;;;8.00;3.50;;;;;;;7.38;80.62;99716.80;1799231;78;21085;-63
2021/10/17 19:50:20;;;;;;;6.67;3.22;;;;;;;7.39;80.66;99723.72;1794305;77;20925;-63
2021/10/17 19:52:51;;;;;;;5.05;2.90;;;;;;;7.40;80.72;99714.17;1778154;79;26930;-63
2021/10/17 19:55:18;;;;;;;12.90;4.47;;;;;;;7.41;80.86;99714.56;1797314;78;21025;-63
2021/10/17 19:57:46;;;;;;;7.50;3.72;;;;;;;7.42;80.88;99714.95;1797945;78;20971;-63
2021/10/17 20:00:14;;;;;;;28.60;13.72;;;;;;;7.44;80.98;99713.61;1799871;78;21737;-64
2021/10/17 20:02:41;;;;;;;36.53;17.70;;;;;;;7.45;80.98;99712.70;1795672;78;20928;-63
2021/10/17 20:05:09;;;;;;;18.82;9.20;;;;;;;7.45;81.02;99715.29;1792749;78;22018;-64
2021/10/17 20:07:35;;;;;;;12.25;5.97;;;;;;;7.43;81.08;99726.21;1793588;78;21534;-64
2021/10/17 20:10:04;;;;;;;13.80;7.07;;;;;;;7.43;81.19;99728.81;1797427;78;20912;-64